Time,TemperatureF,DewpointF,PressureIn,WindDirection,WindDirectionDegrees,WindSpeedMPH,WindSpeedGustMPH,Humidity,HourlyPrecipIn,Conditions,Clouds,dailyrainin,SoftwareType,DateUTC
2013-02-07 00:02:00,36.5,33.3,30.05,South,172,5.0,12.0,88,0.00,,,0.00,Wunderground v.1.15,2013-02-07 06:02:00,
2013-02-07 00:11:00,36.4,33.5,30.04,SSE,161,5.0,7.0,89,0.00,,,0.00,Wunderground v.1.15,2013-02-07 06:11:00,
2013-02-07 00:21:00,36.3,33.4,30.05,SSE,168,4.0,4.0,89,0.00,,,0.00,Wunderground v.1.15,2013-02-07 06:21:00,
2013-02-07 00:31:00,36.2,33.0,30.05,South,180,4.0,4.0,88,0.00,,,0.00,Wunderground v.1.15,2013-02-07 06:31:00,
2013-02-07 00:41:00,36.1,33.2,30.05,SSE,167,4.0,5.0,89,0.00,,,0.00,Wunderground v.1.15,2013-02-07 06:41:00,
2013-02-07 00:51:00,36.1,33.2,30.04,South,172,5.0,5.0,89,0.00,,,0.00,Wunderground v.1.15,2013-02-07 06:51:00,
2013-02-07 01:01:00,36.1,33.2,30.04,South,183,4.0,14.0,89,0.00,,,0.00,Wunderground v.1.15,2013-02-07 07:01:00,
2013-02-07 01:11:00,36.1,33.2,30.04,South,172,3.0,4.0,89,0.00,,,0.00,Wunderground v.1.15,2013-02-07 07:11:00,
2013-02-07 01:21:00,36.1,33.2,30.08,West,272,4.0,6.0,89,0.00,,,0.00,Wunderground v.1.15,2013-02-07 07:21:00,
2013-02-07 01:31:00,36.0,33.1,30.07,West,272,3.0,3.0,89,0.00,,,0.00,Wunderground v.1.15,2013-02-07 07:31:00,
2013-02-07 01:42:00,36.0,33.4,30.06,West,272,0.0,0.0,90,0.00,,,0.00,Wunderground v.1.15,2013-02-07 07:42:00,
2013-02-07 01:51:00,36.0,33.4,30.05,South,190,0.0,0.0,90,0.00,,,0.00,Wunderground v.1.15,2013-02-07 07:51:00,
2013-02-07 02:02:00,36.1,33.5,30.05,ESE,119,3.0,3.0,90,0.00,,,0.00,Wunderground v.1.15,2013-02-07 08:02:00,
2013-02-07 02:12:00,36.0,33.4,30.04,SE,146,2.0,3.0,90,0.00,,,0.00,Wunderground v.1.15,2013-02-07 08:12:00,
2013-02-07 02:22:00,36.1,33.5,30.03,SSE,149,4.0,5.0,90,0.00,,,0.00,Wunderground v.1.15,2013-02-07 08:22:00,
2013-02-07 02:31:00,36.1,33.7,30.02,SE,139,5.0,7.0,91,0.00,,,0.00,Wunderground v.1.15,2013-02-07 08:31:00,
2013-02-07 02:41:00,36.0,33.6,30.01,SE,136,6.0,7.0,91,0.00,,,0.01,Wunderground v.1.15,2013-02-07 08:41:00,
2013-02-07 02:52:00,35.9,33.5,30.01,SSE,154,6.0,6.0,91,0.07,,,0.02,Wunderground v.1.15,2013-02-07 08:52:00,
2013-02-07 03:01:00,36.0,33.6,30.01,SSE,165,4.0,4.0,91,0.00,,,0.02,Wunderground v.1.15,2013-02-07 09:01:00,
2013-02-07 03:12:00,36.1,33.7,30.01,South,179,4.0,4.0,91,0.00,,,0.02,Wunderground v.1.15,2013-02-07 09:12:00,
2013-02-07 03:21:00,36.1,33.7,30.02,SSE,154,4.0,4.0,91,0.00,,,0.02,Wunderground v.1.15,2013-02-07 09:21:00,
2013-02-07 03:31:00,36.2,33.8,30.02,SSE,153,3.0,7.0,91,0.00,,,0.02,Wunderground v.1.15,2013-02-07 09:31:00,
2013-02-07 03:42:00,36.2,33.8,30.02,SE,143,4.0,4.0,91,0.00,,,0.02,Wunderground v.1.15,2013-02-07 09:42:00,
2013-02-07 03:51:00,36.2,33.8,30.02,ESE,115,2.0,3.0,91,0.00,,,0.02,Wunderground v.1.15,2013-02-07 09:51:00,
2013-02-07 04:01:00,36.1,33.7,30.03,SE,131,2.0,2.0,91,0.00,,,0.02,Wunderground v.1.15,2013-02-07 10:01:00,
2013-02-07 04:12:00,36.1,33.7,30.03,SE,129,1.0,1.0,91,0.00,,,0.02,Wunderground v.1.15,2013-02-07 10:12:00,
2013-02-07 04:21:00,36.1,33.7,30.03,SE,134,1.0,1.0,91,0.00,,,0.02,Wunderground v.1.15,2013-02-07 10:21:00,
2013-02-07 04:32:00,36.1,33.7,30.02,SE,134,1.0,1.0,91,0.00,,,0.02,Wunderground v.1.15,2013-02-07 10:32:00,
2013-02-07 04:42:00,36.1,33.7,30.02,SE,134,1.0,1.0,91,0.00,,,0.02,Wunderground v.1.15,2013-02-07 10:42:00,
2013-02-07 04:51:00,36.1,33.7,30.02,SE,134,0.0,0.0,91,0.00,,,0.02,Wunderground v.1.15,2013-02-07 10:51:00,
2013-02-07 05:01:00,36.1,33.7,30.02,SE,134,0.0,10.0,91,0.00,,,0.02,Wunderground v.1.15,2013-02-07 11:01:00,
2013-02-07 05:11:00,36.1,33.7,30.02,SE,133,0.0,3.0,91,0.00,,,0.02,Wunderground v.1.15,2013-02-07 11:11:00,
2013-02-07 05:21:00,36.0,33.6,30.01,SE,131,2.0,2.0,91,0.00,,,0.02,Wunderground v.1.15,2013-02-07 11:21:00,
2013-02-07 05:32:00,36.0,33.9,30.01,SE,129,2.0,2.0,92,0.00,,,0.02,Wunderground v.1.15,2013-02-07 11:32:00,
2013-02-07 05:41:00,36.0,33.9,30.02,SE,129,1.0,1.0,92,0.00,,,0.02,Wunderground v.1.15,2013-02-07 11:41:00,
2013-02-07 05:51:00,36.0,33.9,30.03,SE,129,0.0,0.0,92,0.00,,,0.02,Wunderground v.1.15,2013-02-07 11:51:00,
2013-02-07 06:01:00,36.0,33.9,30.02,SE,129,0.0,4.0,92,0.00,,,0.02,Wunderground v.1.15,2013-02-07 12:01:00,
2013-02-07 06:12:00,36.0,33.9,30.01,ESE,104,2.0,4.0,92,0.00,,,0.03,Wunderground v.1.15,2013-02-07 12:12:00,
2013-02-07 06:22:00,36.0,33.9,30.02,East,88,2.0,2.0,92,0.00,,,0.03,Wunderground v.1.15,2013-02-07 12:22:00,
2013-02-07 06:31:00,36.0,34.2,30.02,East,87,1.0,1.0,93,0.00,,,0.03,Wunderground v.1.15,2013-02-07 12:31:00,
2013-02-07 06:41:00,35.9,34.1,30.01,East,90,1.0,3.0,93,0.10,,,0.05,Wunderground v.1.15,2013-02-07 12:41:00,
2013-02-07 06:52:00,35.8,34.0,30.01,ESE,102,2.0,2.0,93,0.04,,,0.05,Wunderground v.1.15,2013-02-07 12:52:00,
2013-02-07 07:01:00,35.7,34.1,30.01,ESE,104,2.0,4.0,94,0.04,,,0.06,Wunderground v.1.15,2013-02-07 13:01:00,
2013-02-07 07:11:00,35.5,33.9,30.00,East,99,4.0,4.0,94,0.04,,,0.07,Wunderground v.1.15,2013-02-07 13:11:00,
2013-02-07 07:21:00,35.5,33.9,30.00,ESE,109,2.0,3.0,94,0.06,,,0.08,Wunderground v.1.15,2013-02-07 13:21:00,
2013-02-07 07:32:00,35.5,33.9,30.00,ESE,107,3.0,4.0,94,0.04,,,0.08,Wunderground v.1.15,2013-02-07 13:32:00,
2013-02-07 07:41:00,35.5,34.2,30.00,ESE,112,3.0,3.0,95,0.00,,,0.08,Wunderground v.1.15,2013-02-07 13:41:00,
2013-02-07 07:51:00,35.5,34.2,29.99,ESE,107,2.0,4.0,95,0.00,,,0.08,Wunderground v.1.15,2013-02-07 13:51:00,
2013-02-07 08:01:00,35.6,34.3,29.99,SE,132,3.0,7.0,95,0.00,,,0.08,Wunderground v.1.15,2013-02-07 14:01:00,
2013-02-07 08:11:00,35.7,34.4,29.99,ESE,122,3.0,3.0,95,0.00,,,0.09,Wunderground v.1.15,2013-02-07 14:11:00,
2013-02-07 08:21:00,35.7,34.4,29.99,ESE,122,2.0,2.0,95,0.04,,,0.10,Wunderground v.1.15,2013-02-07 14:21:00,
2013-02-07 08:32:00,35.9,34.6,29.99,SE,132,2.0,2.0,95,0.08,,,0.11,Wunderground v.1.15,2013-02-07 14:32:00,
2013-02-07 08:42:00,35.9,34.9,29.98,SE,130,2.0,3.0,96,0.08,,,0.12,Wunderground v.1.15,2013-02-07 14:42:00,
2013-02-07 08:51:00,35.9,34.9,29.98,ESE,103,3.0,4.0,96,0.12,,,0.14,Wunderground v.1.15,2013-02-07 14:51:00,
2013-02-07 09:01:00,35.9,34.6,29.97,ESE,121,3.0,3.0,95,0.09,,,0.15,Wunderground v.1.15,2013-02-07 15:01:00,
2013-02-07 09:11:00,36.0,35.0,29.98,SE,126,2.0,3.0,96,0.07,,,0.16,Wunderground v.1.15,2013-02-07 15:11:00,
2013-02-07 09:22:00,36.1,35.1,29.97,SE,137,2.0,4.0,96,0.04,,,0.17,Wunderground v.1.15,2013-02-07 15:22:00,
2013-02-07 09:32:00,36.2,35.2,29.97,SE,140,3.0,4.0,96,0.11,,,0.18,Wunderground v.1.15,2013-02-07 15:32:00,
2013-02-07 09:41:00,36.4,35.4,29.97,SE,139,3.0,3.0,96,0.06,,,0.19,Wunderground v.1.15,2013-02-07 15:41:00,
2013-02-07 09:51:00,36.5,35.5,29.96,SE,140,2.0,2.0,96,0.04,,,0.19,Wunderground v.1.15,2013-02-07 15:51:00,
2013-02-07 10:01:00,36.7,35.7,29.96,SE,130,2.0,8.0,96,0.04,,,0.20,Wunderground v.1.15,2013-02-07 16:01:00,
2013-02-07 10:12:00,36.9,35.9,29.96,SE,136,3.0,3.0,96,0.00,,,0.20,Wunderground v.1.15,2013-02-07 16:12:00,
2013-02-07 10:21:00,37.1,36.1,29.96,SE,132,1.0,2.0,96,0.00,,,0.20,Wunderground v.1.15,2013-02-07 16:21:00,
2013-02-07 10:31:00,37.3,36.3,29.95,SE,128,3.0,3.0,96,0.00,,,0.21,Wunderground v.1.15,2013-02-07 16:31:00,
2013-02-07 10:42:00,37.5,36.5,29.95,SE,143,3.0,3.0,96,0.00,,,0.21,Wunderground v.1.15,2013-02-07 16:42:00,
2013-02-07 10:51:00,37.6,36.6,29.95,SSE,147,4.0,5.0,96,0.00,,,0.21,Wunderground v.1.15,2013-02-07 16:51:00,
2013-02-07 11:01:00,37.7,36.7,29.95,SSE,148,4.0,4.0,96,0.00,,,0.22,Wunderground v.1.15,2013-02-07 17:01:00,
2013-02-07 11:12:00,37.6,36.6,29.94,SE,139,4.0,4.0,96,0.00,,,0.22,Wunderground v.1.15,2013-02-07 17:12:00,
2013-02-07 11:22:00,37.6,36.6,29.94,SE,136,1.0,1.0,96,0.00,,,0.23,Wunderground v.1.15,2013-02-07 17:22:00,
2013-02-07 11:32:00,37.7,36.7,29.93,SE,135,1.0,2.0,96,0.00,,,0.23,Wunderground v.1.15,2013-02-07 17:32:00,
2013-02-07 11:41:00,37.9,36.9,29.92,SE,138,2.0,2.0,96,0.04,,,0.24,Wunderground v.1.15,2013-02-07 17:41:00,
2013-02-07 11:52:00,38.1,37.1,29.91,SSE,156,2.0,3.0,96,0.00,,,0.24,Wunderground v.1.15,2013-02-07 17:52:00,
2013-02-07 12:02:00,38.2,37.2,29.91,SSE,158,1.0,10.0,96,0.00,,,0.24,Wunderground v.1.15,2013-02-07 18:02:00,
2013-02-07 12:11:00,38.1,37.1,29.91,SSE,158,2.0,2.0,96,0.00,,,0.24,Wunderground v.1.15,2013-02-07 18:11:00,
2013-02-07 12:21:00,38.1,37.1,29.90,SSE,158,1.0,1.0,96,0.00,,,0.24,Wunderground v.1.15,2013-02-07 18:21:00,
2013-02-07 12:32:00,38.2,37.2,29.90,SSE,158,0.0,0.0,96,0.00,,,0.25,Wunderground v.1.15,2013-02-07 18:32:00,
2013-02-07 12:41:00,38.2,37.2,29.89,SSE,158,0.0,0.0,96,0.04,,,0.26,Wunderground v.1.15,2013-02-07 18:41:00,
2013-02-07 12:51:00,38.3,37.3,29.89,SSE,158,0.0,0.0,96,0.08,,,0.27,Wunderground v.1.15,2013-02-07 18:51:00,
2013-02-07 13:01:00,38.4,37.4,29.89,SSE,158,0.0,7.0,96,0.07,,,0.29,Wunderground v.1.15,2013-02-07 19:01:00,
2013-02-07 13:12:00,38.5,37.5,29.88,SSE,158,0.0,0.0,96,0.06,,,0.30,Wunderground v.1.15,2013-02-07 19:12:00,
2013-02-07 13:21:00,38.6,37.6,29.87,SSE,158,0.0,0.0,96,0.05,,,0.30,Wunderground v.1.15,2013-02-07 19:21:00,
2013-02-07 13:31:00,38.8,38.0,29.87,SSE,158,0.0,0.0,97,0.04,,,0.31,Wunderground v.1.15,2013-02-07 19:31:00,
2013-02-07 13:42:00,38.8,37.8,29.87,SSE,158,0.0,0.0,96,0.09,,,0.33,Wunderground v.1.15,2013-02-07 19:42:00,
2013-02-07 13:51:00,38.9,37.9,29.87,SSE,158,0.0,0.0,96,0.10,,,0.34,Wunderground v.1.15,2013-02-07 19:51:00,
2013-02-07 14:01:00,38.9,38.1,29.86,SSE,158,0.0,3.0,97,0.07,,,0.35,Wunderground v.1.15,2013-02-07 20:01:00,
2013-02-07 14:11:00,39.0,38.0,29.85,SSE,158,0.0,0.0,96,0.06,,,0.36,Wunderground v.1.15,2013-02-07 20:11:00,
2013-02-07 14:22:00,39.1,38.3,29.86,SSE,158,0.0,2.0,97,0.04,,,0.37,Wunderground v.1.15,2013-02-07 20:22:00,
2013-02-07 14:32:00,39.1,38.3,29.85,SSE,158,1.0,1.0,97,0.09,,,0.38,Wunderground v.1.15,2013-02-07 20:32:00,
2013-02-07 14:41:00,39.2,38.4,29.86,SSE,158,1.0,2.0,97,0.08,,,0.40,Wunderground v.1.15,2013-02-07 20:41:00,
2013-02-07 14:51:00,39.2,38.4,29.86,SSE,158,2.0,2.0,97,0.07,,,0.41,Wunderground v.1.15,2013-02-07 20:51:00,
2013-02-07 15:02:00,39.2,38.4,29.87,SSE,158,1.0,3.0,97,0.07,,,0.42,Wunderground v.1.15,2013-02-07 21:02:00,
2013-02-07 15:12:00,39.2,38.4,29.86,SSE,158,0.0,0.0,97,0.07,,,0.43,Wunderground v.1.15,2013-02-07 21:12:00,
2013-02-07 15:21:00,39.2,38.4,29.86,SSE,158,1.0,2.0,97,0.06,,,0.44,Wunderground v.1.15,2013-02-07 21:21:00,
2013-02-07 15:31:00,39.2,38.4,29.86,SSE,158,1.0,1.0,97,0.00,,,0.44,Wunderground v.1.15,2013-02-07 21:31:00,
2013-02-07 15:41:00,39.1,38.3,29.84,SSE,158,0.0,0.0,97,0.00,,,0.44,Wunderground v.1.15,2013-02-07 21:41:00,
2013-02-07 15:52:00,39.2,38.4,29.83,SSE,158,0.0,0.0,97,0.00,,,0.45,Wunderground v.1.15,2013-02-07 21:52:00,
2013-02-07 16:02:00,39.1,38.3,29.84,SSE,158,0.0,3.0,97,0.00,,,0.45,Wunderground v.1.15,2013-02-07 22:02:00,
2013-02-07 16:11:00,39.1,38.3,29.85,SSE,158,1.0,2.0,97,0.00,,,0.45,Wunderground v.1.15,2013-02-07 22:11:00,
2013-02-07 16:21:00,38.9,38.1,29.85,SSE,158,1.0,1.0,97,0.00,,,0.46,Wunderground v.1.15,2013-02-07 22:21:00,
2013-02-07 16:31:00,38.8,38.0,29.86,South,172,3.0,3.0,97,0.00,,,0.46,Wunderground v.1.15,2013-02-07 22:31:00,
2013-02-07 16:41:00,38.7,37.9,29.86,South,172,2.0,2.0,97,0.00,,,0.46,Wunderground v.1.15,2013-02-07 22:41:00,
2013-02-07 16:52:00,38.6,37.8,29.86,South,184,2.0,2.0,97,0.00,,,0.46,Wunderground v.1.15,2013-02-07 22:52:00,
2013-02-07 17:02:00,38.5,37.7,29.86,South,188,1.0,1.0,97,0.00,,,0.46,Wunderground v.1.15,2013-02-07 23:02:00,
2013-02-07 17:12:00,38.4,37.6,29.87,West,260,2.0,2.0,97,0.00,,,0.46,Wunderground v.1.15,2013-02-07 23:12:00,
2013-02-07 17:21:00,38.3,37.5,29.88,WNW,286,3.0,3.0,97,0.00,,,0.46,Wunderground v.1.15,2013-02-07 23:21:00,
2013-02-07 17:31:00,38.2,37.4,29.88,WNW,298,3.0,3.0,97,0.00,,,0.46,Wunderground v.1.15,2013-02-07 23:31:00,
2013-02-07 17:41:00,38.2,37.4,29.89,WNW,299,2.0,4.0,97,0.00,,,0.46,Wunderground v.1.15,2013-02-07 23:41:00,
2013-02-07 17:51:00,38.2,37.4,29.89,WNW,299,2.0,2.0,97,0.00,,,0.46,Wunderground v.1.15,2013-02-07 23:51:00,
2013-02-07 18:01:00,38.2,37.4,29.89,WNW,299,1.0,1.0,97,0.00,,,0.46,Wunderground v.1.15,2013-02-08 00:01:00,
2013-02-07 18:12:00,38.1,37.3,29.90,WNW,299,3.0,3.0,97,0.00,,,0.46,Wunderground v.1.15,2013-02-08 00:12:00,
2013-02-07 18:22:00,38.1,37.3,29.91,WNW,299,3.0,3.0,97,0.00,,,0.46,Wunderground v.1.15,2013-02-08 00:22:00,
2013-02-07 18:31:00,38.2,37.7,29.91,NW,314,5.0,5.0,98,0.00,,,0.46,Wunderground v.1.15,2013-02-08 00:31:00,
2013-02-07 18:41:00,38.2,37.7,29.91,NW,310,5.0,5.0,98,0.00,,,0.46,Wunderground v.1.15,2013-02-08 00:41:00,
2013-02-07 18:52:00,38.1,37.6,29.92,NW,311,5.0,6.0,98,0.00,,,0.46,Wunderground v.1.15,2013-02-08 00:52:00,
2013-02-07 19:02:00,38.1,37.6,29.92,NW,312,5.0,5.0,98,0.00,,,0.46,Wunderground v.1.15,2013-02-08 01:02:00,
2013-02-07 19:12:00,38.1,37.6,29.93,NW,309,6.0,6.0,98,0.00,,,0.46,Wunderground v.1.15,2013-02-08 01:12:00,
2013-02-07 19:21:00,38.0,37.5,29.93,NW,315,5.0,6.0,98,0.00,,,0.46,Wunderground v.1.15,2013-02-08 01:21:00,
2013-02-07 19:31:00,38.0,37.5,29.93,NW,316,6.0,6.0,98,0.00,,,0.46,Wunderground v.1.15,2013-02-08 01:31:00,
2013-02-07 19:42:00,38.0,37.5,29.93,NW,316,5.0,5.0,98,0.00,,,0.46,Wunderground v.1.15,2013-02-08 01:42:00,
2013-02-07 19:51:00,38.0,37.5,29.93,NW,323,6.0,6.0,98,0.00,,,0.46,Wunderground v.1.15,2013-02-08 01:51:00,
2013-02-07 20:01:00,38.0,37.5,29.93,NW,323,7.0,7.0,98,0.00,,,0.46,Wunderground v.1.15,2013-02-08 02:01:00,
2013-02-07 20:11:00,37.9,37.4,29.94,NW,323,6.0,6.0,98,0.00,,,0.46,Wunderground v.1.15,2013-02-08 02:11:00,
2013-02-07 20:22:00,37.9,37.4,29.95,NW,317,7.0,8.0,98,0.00,,,0.46,Wunderground v.1.15,2013-02-08 02:22:00,
2013-02-07 20:32:00,37.8,37.3,29.95,NW,320,7.0,7.0,98,0.00,,,0.46,Wunderground v.1.15,2013-02-08 02:32:00,
2013-02-07 20:41:00,37.7,37.2,29.96,NW,326,9.0,10.0,98,0.00,,,0.46,Wunderground v.1.15,2013-02-08 02:41:00,
2013-02-07 20:52:00,37.5,37.0,29.97,NNW,339,11.0,11.0,98,0.00,,,0.46,Wunderground v.1.15,2013-02-08 02:52:00,
2013-02-07 21:02:00,37.4,36.6,29.97,NW,315,11.0,13.0,97,0.00,,,0.46,Wunderground v.1.15,2013-02-08 03:02:00,
2013-02-07 21:12:00,37.4,36.6,29.98,NW,311,11.0,13.0,97,0.00,,,0.46,Wunderground v.1.15,2013-02-08 03:12:00,
2013-02-07 21:21:00,37.2,36.4,29.98,NNW,341,9.0,9.0,97,0.00,,,0.46,Wunderground v.1.15,2013-02-08 03:21:00,
2013-02-07 21:31:00,37.1,36.3,29.98,North,355,8.0,8.0,97,0.00,,,0.46,Wunderground v.1.15,2013-02-08 03:31:00,
2013-02-07 21:42:00,37.0,36.2,29.98,NNW,336,9.0,9.0,97,0.00,,,0.46,Wunderground v.1.15,2013-02-08 03:42:00,
2013-02-07 21:51:00,36.9,36.1,29.98,NNW,327,9.0,9.0,97,0.00,,,0.46,Wunderground v.1.15,2013-02-08 03:51:00,
2013-02-07 22:01:00,36.7,35.7,29.98,NNW,334,11.0,21.0,96,0.00,,,0.46,Wunderground v.1.15,2013-02-08 04:01:00,
2013-02-07 22:11:00,36.6,35.6,29.99,NW,319,10.0,12.0,96,0.00,,,0.46,Wunderground v.1.15,2013-02-08 04:11:00,
2013-02-07 22:21:00,36.4,35.4,29.99,North,350,9.0,15.0,96,0.00,,,0.46,Wunderground v.1.15,2013-02-08 04:21:00,
2013-02-07 22:31:00,36.3,35.3,29.99,NNW,333,9.0,9.0,96,0.00,,,0.46,Wunderground v.1.15,2013-02-08 04:31:00,
2013-02-07 22:42:00,36.3,35.3,29.99,NNW,340,10.0,10.0,96,0.00,,,0.46,Wunderground v.1.15,2013-02-08 04:42:00,
2013-02-07 22:51:00,36.2,35.2,30.00,NW,321,9.0,9.0,96,0.00,,,0.46,Wunderground v.1.15,2013-02-08 04:51:00,
2013-02-07 23:01:00,36.2,35.2,30.00,NW,319,10.0,18.0,96,0.00,,,0.46,Wunderground v.1.15,2013-02-08 05:01:00,
2013-02-07 23:11:00,36.1,34.8,30.00,NW,317,11.0,11.0,95,0.00,,,0.46,Wunderground v.1.15,2013-02-08 05:11:00,
2013-02-07 23:21:00,36.1,34.8,30.00,NNW,332,11.0,11.0,95,0.00,,,0.46,Wunderground v.1.15,2013-02-08 05:21:00,
2013-02-07 23:32:00,36.1,34.8,30.01,North,360,11.0,14.0,95,0.00,,,0.46,Wunderground v.1.15,2013-02-08 05:32:00,
2013-02-07 23:41:00,36.1,34.8,30.01,NW,326,11.0,11.0,95,0.00,,,0.46,Wunderground v.1.15,2013-02-08 05:41:00,
2013-02-07 23:51:00,36.1,34.8,30.02,NNW,334,11.0,15.0,95,0.00,,,0.46,Wunderground v.1.15,2013-02-08 05:51:00,